Condiciones actuales en los principales Aeropuertos de España-Datos Metar

 

LEAL - Alicante
Actualización: 23/08/2019 15:00
Despejado
Despejado
 Viento del ENE
Viento: ENE 17 km/h
Temperatura: 28°C
Heat Index: 29°C
Rocío: 19°C
Humedad: 58%
Barómetro: 1019 hPa
Resumen: Despejado
Visibilidad: greater than 10 km
2019/08/23 13:00 LEAL 231300Z 07009KT 040V130 CAVOK 28/19 Q1019 NOSIG
LEAB - Albacete
Actualización: 23/08/2019 15:00
Despejado
Despejado
 Viento del varies
Viento: varies 15 km/h
Temperatura: 29°C
Rocío: 8°C
Humedad: 27%
Barómetro: 1021 hPa
Resumen: Despejado
Visibilidad: greater than 10 km
2019/08/23 13:00 LEAB 231300Z VRB08KT CAVOK 29/08 Q1021 NOSIG
LEAM - Almería
Actualización: 23/08/2019 15:00
Despejado
Despejado
 Viento del E
Viento: E 35 km/h
Temperatura: 33°C
Rocío: 14°C
Humedad: 32%
Barómetro: 1017 hPa
Resumen: Despejado
Visibilidad: greater than 10 km
2019/08/23 13:00 LEAM 231300Z 08019KT 040V110 CAVOK 33/14 Q1017
 
LEAS - Asturias/Aviles
Actualización: 23/08/2019 15:00
Despejado
Despejado
 Viento del ENE
Viento: ENE 9 km/h
Temperatura: 32°C
Heat Index: 34°C
Rocío: 20°C
Humedad: 49%
Barómetro: 1016 hPa
Resumen: Despejado
Visibilidad: greater than 10 km
2019/08/23 13:00 LEAS 231300Z 06005KT 010V100 CAVOK 32/20 Q1016 NOSIG
LEBZ - Badajoz/Talavera la Real
Actualización: 23/08/2019 15:00
Despejado
Despejado
 Viento del E
Viento: E 11 km/h
Temperatura: 35°C
Rocío: 15°C
Humedad: 30%
Barómetro: 1016 hPa
Resumen: Despejado
Visibilidad: greater than 10 km
2019/08/23 13:00 LEBZ 231300Z 08006KT 030V160 CAVOK 35/15 Q1016
LEBL - Barcelona
Actualización: 23/08/2019 15:00
Despejado
Despejado
 Viento del SE
Viento: SE 13 km/h
Temperatura: 26°C
Rocío: 19°C
Humedad: 65%
Barómetro: 1020 hPa
Resumen: Despejado
Visibilidad: greater than 10 km
2019/08/23 13:00 LEBL 231300Z 13007KT 090V170 CAVOK 26/19 Q1020 NOSIG
 
LEBB - Bilbao
Actualización: 23/08/2019 15:00
Despejado
Despejado
 Viento del varies
Viento: varies 6 km/h
Temperatura: 35°C
Rocío: 12°C
Humedad: 25%
Barómetro: 1016 hPa
Resumen: Despejado
Visibilidad: greater than 10 km
2019/08/23 13:00 LEBB 231300Z VRB03KT CAVOK 35/12 Q1016 NOSIG
LEBG - Burgos/Villafría
Actualización: 23/08/2019 15:00
Partly Cloudy
Partly Cloudy
 Viento del SO
Viento: SO 11 km/h, Racha: 30 km/h
Temperatura: 29°C
Rocío: 3°C
Humedad: 19%
Barómetro: 1022 hPa
Nubosidad: Partly Cloudy
Visibilidad: 10 km
2019/08/23 13:00 LEBG 231300Z 22006G16KT 160V270 9999 4800SW NSC 29/03 Q1022
LEBA - Córdoba
Actualización: 23/08/2019 15:00
Despejado
Despejado
 Viento del S
Viento: S 6 km/h
Temperatura: 35°C
Rocío: 13°C
Humedad: 26%
Barómetro: 1016 hPa
Resumen: Despejado
Visibilidad: greater than 10 km
2019/08/23 13:00 LEBA 231300Z 17003KT CAVOK 35/13 Q1016
 
LEGE - Gerona
Actualización: 23/08/2019 15:00
Few Clouds
Few Clouds
 Viento del SSE
Viento: SSE 19 km/h
Temperatura: 32°C
Rocío: 14°C
Humedad: 33%
Barómetro: 1019 hPa
Nubosidad: Few Clouds
Visibilidad: 10 km
Cloud details: Few Clouds 1524 m
2019/08/23 13:00 LEGE 231300Z 16010KT 110V230 9999 FEW050 32/14 Q1019
LEGR - Granada
Actualización: 23/08/2019 15:00
Despejado
Despejado
 Viento del varies
Viento: varies 6 km/h
Temperatura: 33°C
Rocío: 9°C
Humedad: 23%
Barómetro: 1019 hPa
Resumen: Despejado
Visibilidad: greater than 10 km
2019/08/23 13:00 LEGR 231300Z VRB03KT CAVOK 33/09 Q1019
GCHI - Hierro
Actualización: 23/08/2019 15:00
Partly Cloudy
Partly Cloudy
 Viento del N
Viento: N 33 km/h
Temperatura: 26°C
Rocío: 20°C
Humedad: 70%
Barómetro: 1015 hPa
Nubosidad: Partly Cloudy
Visibilidad: 10 km
Cloud details: Partly Cloudy 792 m
2019/08/23 13:00 GCHI 231300Z 35018KT 320V020 9999 SCT026 26/20 Q1015
 
LEIB - Ibiza
Actualización: 23/08/2019 15:00
Few Clouds
Few Clouds
 Viento del E
Viento: E 19 km/h
Temperatura: 29°C
Heat Index: 31°C
Rocío: 20°C
Humedad: 58%
Barómetro: 1019 hPa
Nubosidad: Few Clouds
Visibilidad: 10 km
Cloud details: Few Clouds 914 m
2019/08/23 13:00 LEIB 231300Z 09010KT 030V150 9999 FEW030 29/20 Q1019 NOSIG
LEJR - Jerez de la Frontera
Actualización: 23/08/2019 15:30
Despejado
Despejado
 Viento del E
Viento: E 13 km/h
Temperatura: 36°C
Rocío: 11°C
Humedad: 22%
Barómetro: 1014 hPa
Resumen: Despejado
Visibilidad: greater than 10 km
2019/08/23 13:30 LEJR 231330Z 09007KT 050V150 CAVOK 36/11 Q1014
LECO - A Coruña
Actualización: 23/08/2019 15:00
Despejado
Despejado
 Viento del NE
Viento: NE 9 km/h
Temperatura: 28°C
Heat Index: 29°C
Rocío: 20°C
Humedad: 62%
Barómetro: 1016 hPa
Resumen: Despejado
Visibilidad: greater than 10 km
2019/08/23 13:00 LECO 231300Z 04005KT 010V070 CAVOK 28/20 Q1016 NOSIG
 
GCLA - La Palma
Actualización: 23/08/2019 15:00
Despejado
Despejado
 Viento del NNE
Viento: NNE 24 km/h
Temperatura: 25°C
Rocío: 20°C
Humedad: 74%
Barómetro: 1016 hPa
Resumen: Despejado
Visibilidad: greater than 10 km
2019/08/23 13:00 GCLA 231300Z 03013KT 350V060 CAVOK 25/20 Q1016
GCRR - Lanzarote
Actualización: 23/08/2019 15:00
Despejado
Despejado
 Viento del N
Viento: N 30 km/h
Temperatura: 31°C
Heat Index: 33°C
Rocío: 20°C
Humedad: 52%
Barómetro: 1013 hPa
Resumen: Despejado
Visibilidad: greater than 10 km
2019/08/23 13:00 GCRR 231300Z 35016KT CAVOK 31/20 Q1013
GCLP - Las Palmas
Actualización: 23/08/2019 15:00
Few Clouds
Few Clouds
 Viento del NNE
Viento: NNE 54 km/h
Temperatura: 26°C
Rocío: 20°C
Humedad: 70%
Barómetro: 1013 hPa
Nubosidad: Few Clouds
Visibilidad: 10 km
Cloud details: Few Clouds 610 m
2019/08/23 13:00 GCLP 231300Z 02029KT 9999 FEW020 26/20 Q1013 NOSIG
 
LELN - León
Actualización: 23/08/2019 15:00
Few Clouds
Few Clouds
 Viento del SSO
Viento: SSO 6 km/h
Temperatura: 29°C
Rocío: 0°C
Humedad: 15%
Barómetro: 1021 hPa
Nubosidad: Few Clouds
Visibilidad: 10 km
Cloud details: Few Clouds 1219 m
2019/08/23 13:00 LELN 231300Z 20003KT 9999 FEW040 29/00 Q1021
LELO - Logroño
Actualización: 23/08/2019 15:00
Despejado
Despejado
 Viento del E
Viento: E 15 km/h
Temperatura: 30°C
Rocío: 10°C
Humedad: 29%
Barómetro: 1019 hPa
Resumen: Despejado
Visibilidad: greater than 10 km
2019/08/23 13:00 LELO 231300Z 09008KT 040V140 CAVOK 30/10 Q1019
LECV - Madrid/Colmenar
Actualización: 23/08/2019 15:00
Few Clouds
Few Clouds
 Viento del ESE
Viento: ESE 6 km/h
Temperatura: 29°C
Rocío: 3°C
Humedad: 19%
Barómetro: 1023 hPa
Nubosidad: Few Clouds
Visibilidad: 10 km
Cloud details: Few Clouds 1524 m
2019/08/23 13:00 LECV 231300Z 12003KT 9999 FEW050 29/03 Q1023
 
LEMD - Madrid/Barajas
Actualización: 23/08/2019 15:00
Despejado
Despejado
 Viento del SE
Viento: SE 6 km/h
Temperatura: 31°C
Rocío: 9°C
Humedad: 25%
Barómetro: 1020 hPa
Resumen: Despejado
Visibilidad: greater than 10 km
2019/08/23 13:00 LEMD 231300Z 14003KT CAVOK 31/09 Q1020 NOSIG
LEVS - Madrid/Cuatro Vientos
Actualización: 23/08/2019 15:00
Despejado
Despejado
 Viento del varies
Viento: varies 7 km/h
Temperatura: 31°C
Rocío: 9°C
Humedad: 25%
Barómetro: 1021 hPa
Resumen: Despejado
Visibilidad: greater than 10 km
2019/08/23 13:00 LEVS 231300Z VRB04KT CAVOK 31/09 Q1021
LEGT - Madrid/Getafe
Actualización: 23/08/2019 15:00
Despejado
Despejado
 Viento del varies
Viento: varies 7 km/h
Temperatura: 31°C
Rocío: 10°C
Humedad: 27%
Barómetro: 1021 hPa
Resumen: Despejado
Visibilidad: greater than 10 km
2019/08/23 13:00 LEGT 231300Z VRB04KT CAVOK 31/10 Q1021
 
LETO - Madrid/Torrejón
Actualización: 23/08/2019 15:00
Despejado
Despejado
 Viento del SO
Viento: SO 9 km/h
Temperatura: 31°C
Rocío: 8°C
Humedad: 24%
Barómetro: 1021 hPa
Resumen: Despejado
Visibilidad: greater than 10 km
2019/08/23 13:00 LETO 231300Z 22005KT 170V290 CAVOK 31/08 Q1021 NOSIG
LEMG - Málaga
Actualización: 23/08/2019 15:00
Despejado
Despejado
 Viento del SSE
Viento: SSE 15 km/h
Temperatura: 29°C
Heat Index: 29°C
Rocío: 15°C
Humedad: 43%
Barómetro: 1018 hPa
Resumen: Despejado
Visibilidad: greater than 10 km
2019/08/23 13:00 LEMG 231300Z 15008KT 110V210 CAVOK 29/15 Q1018 NOSIG
GEML - Melilla
Actualización: 23/08/2019 15:00
Partly Cloudy
Partly Cloudy
 Viento del E
Viento: E 22 km/h
Temperatura: 27°C
Heat Index: 29°C
Rocío: 21°C
Humedad: 70%
Barómetro: 1017 hPa
Nubosidad: Partly Cloudy
Visibilidad: 10 km
Cloud details: Partly Cloudy 335 m
2019/08/23 13:00 GEML 231300Z 08012KT 040V110 9999 SCT011 27/21 Q1017
 
LEMH - Mahón
Actualización: 23/08/2019 15:00
Few Clouds
Few Clouds
 Viento del ENE
Viento: ENE 13 km/h
Temperatura: 28°C
Heat Index: 30°C
Rocío: 21°C
Humedad: 66%
Barómetro: 1019 hPa
Nubosidad: Few Clouds
Visibilidad: 10 km
Cloud details: Few Clouds 701 m
2019/08/23 13:00 LEMH 231300Z 07007KT 360V100 9999 FEW023 28/21 Q1019
LEMO - Morón de La Frontera
Actualización: 23/08/2019 15:00
Despejado
Despejado
 Viento del E
Viento: E 11 km/h
Temperatura: 36°C
Rocío: 9°C
Humedad: 19%
Barómetro: 1014 hPa
Resumen: Despejado
Visibilidad: greater than 10 km
2019/08/23 13:00 LEMO 231300Z 09006KT 360V160 CAVOK 36/09 Q1014 NOSIG
LEMI - Murcia/Corvera
Actualización: 23/08/2019 15:00
Despejado
Despejado
 Viento del E
Viento: E 20 km/h
Temperatura: 28°C
Heat Index: 28°C
Rocío: 15°C
Humedad: 45%
Barómetro: 1019 hPa
Resumen: Despejado
Visibilidad: greater than 10 km
2019/08/23 13:00 LEMI 231300Z 09011KT 050V140 CAVOK 28/15 Q1019
 
LERI - Murcia/Alcantarilla
Actualización: 23/08/2019 15:00
Despejado
Despejado
 Viento del NE
Viento: NE 19 km/h
Temperatura: 32°C
Rocío: 13°C
Humedad: 31%
Barómetro: 1019 hPa
Resumen: Despejado
Visibilidad: greater than 10 km
2019/08/23 13:00 LERI 231300Z 04010KT 360V110 CAVOK 32/13 Q1019 NOSIG
LELC - Murcia/San Javier
Actualización: 23/08/2019 15:00
Few Clouds
Few Clouds
 Viento del ENE
Viento: ENE 20 km/h
Temperatura: 29°C
Heat Index: 31°C
Rocío: 20°C
Humedad: 58%
Barómetro: 1019 hPa
Nubosidad: Few Clouds
Visibilidad: 10 km
Cloud details: Few Clouds 762 m
2019/08/23 13:00 LELC 231300Z 06011KT 020V100 9999 FEW025 29/20 Q1019 NOSIG
LEPA - Palma de Mallorca
Actualización: 23/08/2019 15:00
Few Clouds
Few Clouds
 Viento del SO
Viento: SO 22 km/h
Temperatura: 30°C
Heat Index: 32°C
Rocío: 20°C
Humedad: 55%
Barómetro: 1018 hPa
Nubosidad: Few Clouds
Visibilidad: 10 km
Cloud details: Few Clouds 914 m
2019/08/23 13:00 LEPA 231300Z 22012KT 190V250 9999 FEW030 30/20 Q1018 NOSIG
 
LEPP - Pamplona
Actualización: 23/08/2019 15:00
Despejado
Despejado
 Viento del S
Viento: S 9 km/h
Temperatura: 31°C
Rocío: 10°C
Humedad: 27%
Barómetro: 1020 hPa
Resumen: Despejado
Visibilidad: greater than 10 km
2019/08/23 13:00 LEPP 231300Z 19005KT CAVOK 31/10 Q1020
LERS - Reus
Actualización: 23/08/2019 15:00
Few Clouds
Few Clouds
 Viento del SE
Viento: SE 13 km/h
Temperatura: 29°C
Heat Index: 29°C
Rocío: 17°C
Humedad: 48%
Barómetro: 1019 hPa
Nubosidad: Few Clouds
Visibilidad: 10 km
Cloud details: Few Clouds 1524 m
2019/08/23 13:00 LERS 231300Z 13007KT 080V200 9999 FEW050 29/17 Q1019
LERT - Rota
Actualización: 23/08/2019 15:00
Despejado
Despejado
 Viento del ESE
Viento: ESE 31 km/h
Temperatura: 33°C
Rocío: 16°C
Humedad: 36%
Barómetro: 1015 hPa
Resumen: Despejado
Visibilidad: greater than 10 km
2019/08/23 13:00 LERT 231300Z 12017KT 090V150 CAVOK 33/16 Q1015 NOSIG
 
LELL - Sabadell
Actualización: 23/08/2019 15:00
Few Clouds
Few Clouds
 Viento del ESE
Viento: ESE 19 km/h
Temperatura: 29°C
Heat Index: 29°C
Rocío: 17°C
Humedad: 48%
Barómetro: 1020 hPa
Nubosidad: Few Clouds
Visibilidad: 10 km
Cloud details: Few Clouds 1372 m
2019/08/23 13:00 LELL 231300Z 11010KT 080V140 9999 FEW045 29/17 Q1020
LESA - Salamanca
Actualización: 23/08/2019 15:00
Despejado
Despejado
 Viento del ESE
Viento: ESE 9 km/h
Temperatura: 32°C
Rocío: 4°C
Humedad: 17%
Barómetro: 1021 hPa
Resumen: Despejado
Visibilidad: greater than 10 km
2019/08/23 13:00 LESA 231300Z 11005KT 340V150 CAVOK 32/04 Q1021
LESO - San Sebastián
Actualización: 23/08/2019 15:00
Despejado
Despejado
 Viento del NNE
Viento: NNE 7 km/h
Temperatura: 27°C
Heat Index: 28°C
Rocío: 19°C
Humedad: 62%
Barómetro: 1017 hPa
Resumen: Despejado
Visibilidad: greater than 10 km
2019/08/23 13:00 LESO 231300Z 02004KT 320V070 CAVOK 27/19 Q1017
 
LEXJ - Santander
Actualización: 23/08/2019 15:00
Despejado
Despejado
 Viento del NE
Viento: NE 11 km/h
Temperatura: 24°C
Rocío: 17°C
Humedad: 65%
Barómetro: 1017 hPa
Resumen: Despejado
Visibilidad: greater than 10 km
2019/08/23 13:00 LEXJ 231300Z 05006KT 350V110 CAVOK 24/17 Q1017
LEPA - Palma de Mallorca
Actualización: 23/08/2019 15:00
Few Clouds
Few Clouds
 Viento del SO
Viento: SO 22 km/h
Temperatura: 30°C
Heat Index: 32°C
Rocío: 20°C
Humedad: 55%
Barómetro: 1018 hPa
Nubosidad: Few Clouds
Visibilidad: 10 km
Cloud details: Few Clouds 914 m
2019/08/23 13:00 LEPA 231300Z 22012KT 190V250 9999 FEW030 30/20 Q1018 NOSIG
LEPP - Pamplona
Actualización: 23/08/2019 15:00
Despejado
Despejado
 Viento del S
Viento: S 9 km/h
Temperatura: 31°C
Rocío: 10°C
Humedad: 27%
Barómetro: 1020 hPa
Resumen: Despejado
Visibilidad: greater than 10 km
2019/08/23 13:00 LEPP 231300Z 19005KT CAVOK 31/10 Q1020
 
LEST - Santiago de Compostela
Actualización: 23/08/2019 15:00
Despejado
Despejado
 Viento del OSO
Viento: OSO 9 km/h
Temperatura: 32°C
Rocío: 14°C
Humedad: 33%
Barómetro: 1018 hPa
Resumen: Despejado
Visibilidad: greater than 10 km
2019/08/23 13:00 LEST 231300Z 25005KT 210V310 CAVOK 32/14 Q1018 NOSIG
LEZL - Sevilla
Actualización: 23/08/2019 15:00
Despejado
Despejado
 Viento del E
Viento: E 19 km/h
Temperatura: 36°C
Rocío: 8°C
Humedad: 18%
Barómetro: 1014 hPa
Resumen: Despejado
Visibilidad: greater than 10 km
2019/08/23 13:00 LEZL 231300Z 09010KT 030V150 CAVOK 36/08 Q1014 NOSIG
GCXO - Tenerife
Actualización: 23/08/2019 15:00
Despejado
Despejado
 Viento del ONO
Viento: ONO 26 km/h
Temperatura: 24°C
Rocío: 18°C
Humedad: 69%
Barómetro: 1017 hPa
Resumen: Despejado
Visibilidad: greater than 10 km
2019/08/23 13:00 GCXO 231300Z 29014KT CAVOK 24/18 Q1017 NOSIG
 
GCTS - Tenerife-Sur
Actualización: 23/08/2019 15:00
Despejado
Despejado
 Viento del S
Viento: S 13 km/h
Temperatura: 27°C
Heat Index: 29°C
Rocío: 20°C
Humedad: 66%
Barómetro: 1014 hPa
Resumen: Despejado
Visibilidad: greater than 10 km
2019/08/23 13:00 GCTS 231300Z 19007KT 150V230 CAVOK 27/20 Q1014 WS R07 NOSIG
LEVC - Valencia
Actualización: 23/08/2019 15:00
Few Clouds
Few Clouds
 Viento del SE
Viento: SE 17 km/h
Temperatura: 32°C
Rocío: 12°C
Humedad: 29%
Barómetro: 1019 hPa
Nubosidad: Few Clouds
Visibilidad: 10 km
Cloud details: Few Clouds 1372 m
2019/08/23 13:00 LEVC 231300Z 14009KT 100V170 9999 FEW045 32/12 Q1019 NOSIG
LEVD - Valladolid
Actualización: 23/08/2019 15:00
Despejado
Despejado
 Viento del OSO
Viento: OSO 13 km/h
Temperatura: 31°C
Rocío: 1°C
Humedad: 15%
Barómetro: 1021 hPa
Resumen: Despejado
Visibilidad: greater than 10 km
2019/08/23 13:00 LEVD 231300Z 24007KT 190V290 CAVOK 31/01 Q1021
 
LEVX - Vigo
Actualización: 23/08/2019 15:00
Despejado
Despejado
 Viento del NE
Viento: NE 6 km/h
Temperatura: 30°C
Heat Index: 31°C
Rocío: 19°C
Humedad: 52%
Barómetro: 1018 hPa
Resumen: Despejado
Visibilidad: greater than 10 km
2019/08/23 13:00 LEVX 231300Z 05003KT 330V120 CAVOK 30/19 Q1018 NOSIG
LEVT - Vitoria
Actualización: 23/08/2019 15:00
Despejado
Despejado
 Viento del O
Viento: O 7 km/h
Temperatura: 31°C
Rocío: 8°C
Humedad: 24%
Barómetro: 1020 hPa
Resumen: Despejado
Visibilidad: greater than 10 km
2019/08/23 13:00 LEVT 231300Z 26004KT CAVOK 31/08 Q1020
LEZG - Zaragoza
Actualización: 23/08/2019 15:00
Few Clouds
Few Clouds
 Viento del E
Viento: E 9 km/h
Temperatura: 31°C
Rocío: 12°C
Humedad: 31%
Barómetro: 1019 hPa
Nubosidad: Few Clouds
Visibilidad: 10 km
Cloud details: Few Clouds 1219 m
2019/08/23 13:00 LEZG 231300Z 09005KT 040V160 9999 FEW040 31/12 Q1019

La estación de MeteoMurcia.com, publica sus datos en los siguientes proyectos:

Weather Underground PWS IMURCIAP2 Meteoclimatic www.awekas.at

W3Counter
Web Analytics